KRHI

Rhinelander-Oneida County Airport

Rhinelander, Wisconsin, USA
METAR KRHI 191124Z AUTO 09008KT 1 3/4SM -RA BR OVC003 13/12 A3005 RMK AO2 RAB17 P0000 T01280122
Observed Flight Rules
Sep-19 @ 11:24 UTC (7 minutes ago) Instrument Flight Rules
Wind Visibility Clouds Conditions
90° at 8 knots 1 3/4 miles
  • Overcast at 300' AGL
  • Light Rain
  • Mist
Temperatures Readings Precipitation
Current 13°C / 55°F
Dewpoint 12°C / 54°F
Humidity 94%
Altimeter 30.05" Hg
Pressure 1018 hPa
Elevation 485
Current Rain 0.005
METAR KRHI 191124Z AUTO 09008KT 1 3/4SM -RA BR OVC003 13/12 A3005 RMK AO2 RAB17 P0000 T01280122
Observed Flight Rules
Sep-19 @ 11:24 UTC
(7 minutes ago)
LIFR
Wind Visibility
90° at 8 knots 1 3/4 miles
Clouds
  • Overcast at 300' AGL
Conditions
  • Light Rain
  • Mist
Temperature Dewpoint
13°C / 55°F 12°C / 54°F
Humidity Altimeter Pressure
94% 30.05" Hg 1018 hPa
Current Rain
0.005